Toledo Express Airport Toledo US
ICAO: KTOL
IATA: TOL
Category: Large
Scheduled Services: Yes

Elevation: 683 ft
TransAlt. 18000 ft.

Airport Communications:
APP/DEP:123.975
ATIS:118.75
CLNC DEL:121.75
GND:121.9
180 FW OPS SOF:143.85
TWR:118.1
UNICOM:122.95

KTOL Zoom In..

Runways:

(A) RW 07 length 10599 ft width 150 ft
ILS 109.70 / hdg 72

(B) RW 16 length 5599 ft width 150 ft
---- / hdg 162

(C) RW 25 length 10599 ft width 150 ft
ILS 108.70 / hdg 252

(D) RW 34 length 5599 ft width 150 ft
---- / hdg 342

Location; KTOL
Day. 01 / Time. 16.52 Zulu
* Altimeter: 29.81
* Temperature: 01° c. 33.8°f.
* Wind from: KTO° Speed L kn.
Dewpoint: -05° c.
Visibility: 9 Statute Miles.
Clouds: Overcast 2400 ft.
Conditions: Light Snow.

KTOL 011652Z 30013KT 9SM -SN OVC024 01/M05 A2981 RMK AO2 SNB1556 SLP103 P0000 T00061050 $

Going to: --> -->


Wind From KTO°
Speed L kn.

 
 
jpsmedia worldairports.se 2020   terms of use